Time;durP1;ratioP1;P1;durP2;ratioP2;P2;SDS_P1;SDS_P2;PMS_P1;PMS_P2;Temp;Humidity;BMP_temperature;BMP_pressure;BME280_temperature;BME280_humidity;BME280_pressure;Samples;Min_cycle;Max_cycle;Signal;HPM_P1;HPM_P2
2021/07/27 00:02:15;;;;;;;55.83;48.13;;;17.60;99.90;;;;;;5024473;28;20088;-48
2021/07/27 00:04:41;;;;;;;61.08;50.50;;;17.60;99.90;;;;;;5024641;28;20045;-45
2021/07/27 00:07:08;;;;;;;62.85;49.80;;;17.50;99.90;;;;;;5024451;28;20045;-46
2021/07/27 00:09:39;;;;;;;65.32;51.90;;;17.50;99.90;;;;;;5024115;28;20376;-48
2021/07/27 00:12:05;;;;;;;64.93;52.23;;;17.50;99.90;;;;;;5026820;28;20143;-46
2021/07/27 00:14:36;;;;;;;64.20;51.80;;;17.50;99.90;;;;;;5027603;28;20336;-47
2021/07/27 00:17:03;;;;;;;72.32;54.58;;;17.50;99.90;;;;;;5029405;28;20053;-48
2021/07/27 00:19:31;;;;;;;68.60;54.10;;;17.40;99.90;;;;;;5029415;28;20607;-48
2021/07/27 00:21:57;;;;;;;64.72;51.30;;;17.40;99.90;;;;;;5026425;28;20053;-47
2021/07/27 00:24:30;;;;;;;65.30;51.88;;;17.40;99.90;;;;;;5027843;28;20049;-47
2021/07/27 00:26:57;;;;;;;74.05;54.35;;;17.40;99.90;;;;;;5036825;28;20115;-47
2021/07/27 00:29:26;;;;;;;72.47;55.42;;;17.40;99.90;;;;;;5028854;28;20069;-48
2021/07/27 00:31:53;;;;;;;75.43;57.20;;;17.50;99.90;;;;;;5043942;28;20045;-50
2021/07/27 00:34:25;;;;;;;67.88;53.42;;;17.50;99.90;;;;;;5024462;28;20057;-46
2021/07/27 00:36:52;;;;;;;73.20;55.38;;;17.50;99.90;;;;;;5027927;28;20068;-49
2021/07/27 00:39:20;;;;;;;74.13;56.30;;;17.50;99.90;;;;;;5028193;28;20049;-48
2021/07/27 00:41:46;;;;;;;72.22;53.70;;;17.50;99.90;;;;;;5029500;28;20151;-49
2021/07/27 00:44:13;;;;;;;73.32;55.08;;;17.50;99.90;;;;;;5028666;28;20057;-48
2021/07/27 00:46:39;;;;;;;74.25;54.38;;;17.50;99.90;;;;;;5027174;28;20092;-48
2021/07/27 00:49:08;;;;;;;72.22;54.00;;;17.40;99.90;;;;;;5027291;28;20140;-47
2021/07/27 00:51:35;;;;;;;71.57;52.55;;;17.40;99.90;;;;;;5027515;28;20057;-46
2021/07/27 00:54:06;;;;;;;73.15;54.90;;;17.40;99.90;;;;;;5027538;28;20053;-46
2021/07/27 00:56:33;;;;;;;76.35;55.88;;;17.40;99.90;;;;;;5031072;28;20128;-47
2021/07/27 00:58:59;;;;;;;75.82;54.63;;;17.40;99.90;;;;;;5027533;28;20557;-49
2021/07/27 01:01:26;;;;;;;81.55;58.15;;;17.30;99.90;;;;;;5026378;28;20050;-48
2021/07/27 01:03:55;;;;;;;75.45;55.00;;;17.40;99.90;;;;;;5025777;28;20049;-47
2021/07/27 01:06:22;;;;;;;79.88;55.63;;;17.40;99.90;;;;;;5026452;28;20089;-46
2021/07/27 01:08:49;;;;;;;84.68;57.50;;;17.30;99.90;;;;;;5027075;28;20585;-47
2021/07/27 01:11:25;;;;;;;79.60;56.75;;;17.30;99.90;;;;;;5022838;28;20054;-49
2021/07/27 01:13:54;;;;;;;76.82;53.90;;;17.40;99.90;;;;;;5016702;28;20132;-45
2021/07/27 01:16:29;;;;;;;81.72;56.45;;;17.40;99.90;;;;;;5025441;28;20052;-49
2021/07/27 01:43:43;;;;;;;62.65;48.78;;;17.90;99.90;;;;;;5024708;28;20059;-47
2021/07/27 01:46:15;;;;;;;66.75;50.75;;;17.90;99.90;;;;;;5016721;28;20062;-49
2021/07/27 01:48:43;;;;;;;67.93;49.00;;;17.90;99.90;;;;;;5003443;28;20739;-49
2021/07/27 01:51:12;;;;;;;59.20;49.13;;;17.90;99.90;;;;;;5006854;28;20084;-49
2021/07/27 01:53:47;;;;;;;58.08;47.63;;;17.90;99.90;;;;;;5005813;28;20054;-49
2021/07/27 01:56:20;;;;;;;60.28;47.95;;;17.90;99.90;;;;;;5007615;28;20057;-50
2021/07/27 01:58:48;;;;;;;66.65;48.65;;;17.90;99.90;;;;;;5016466;28;20041;-54
2021/07/27 02:01:20;;;;;;;63.88;48.28;;;17.90;99.90;;;;;;5026299;28;20053;-49
2021/07/27 02:03:46;;;;;;;59.58;47.30;;;17.90;99.90;;;;;;5026745;28;20045;-49
2021/07/27 02:06:16;;;;;;;64.10;49.42;;;17.90;99.90;;;;;;5026934;28;20046;-52
2021/07/27 02:08:45;;;;;;;60.50;47.10;;;17.90;99.90;;;;;;5030554;28;20075;-50
2021/07/27 02:11:18;;;;;;;58.92;47.00;;;17.90;99.90;;;;;;5025900;28;20046;-50
2021/07/27 02:13:49;;;;;;;57.95;45.67;;;17.90;99.90;;;;;;5026771;28;20194;-50
2021/07/27 02:16:16;;;;;;;62.30;46.90;;;17.90;99.90;;;;;;5025867;28;20077;-47
2021/07/27 02:18:43;;;;;;;62.88;45.53;;;17.90;99.90;;;;;;5026074;28;20056;-49
2021/07/27 02:21:11;;;;;;;63.55;48.72;;;17.90;99.90;;;;;;5025851;28;20147;-47
2021/07/27 02:23:40;;;;;;;62.78;47.92;;;17.90;99.90;;;;;;5025689;28;20054;-44
2021/07/27 02:26:12;;;;;;;62.33;46.38;;;17.90;99.90;;;;;;5026440;28;20057;-48
2021/07/27 02:28:41;;;;;;;55.58;46.50;;;17.90;99.90;;;;;;5026021;28;20049;-47
2021/07/27 02:31:13;;;;;;;62.30;46.22;;;17.90;99.90;;;;;;5030564;28;20147;-48
2021/07/27 02:33:39;;;;;;;61.13;46.75;;;17.90;99.90;;;;;;5026301;28;20164;-48
2021/07/27 02:36:05;;;;;;;59.92;45.25;;;17.90;99.90;;;;;;5025750;28;20066;-50
2021/07/27 02:38:34;;;;;;;62.55;45.60;;;17.90;99.90;;;;;;5025184;28;20128;-47
2021/07/27 02:41:01;;;;;;;59.08;42.40;;;17.80;99.90;;;;;;5024327;28;20144;-45
2021/07/27 02:43:29;;;;;;;49.78;36.63;;;17.70;99.90;;;;;;5026380;28;20478;-45
2021/07/27 02:45:55;;;;;;;43.40;35.17;;;17.70;99.90;;;;;;5031359;28;20124;-44
2021/07/27 02:48:22;;;;;;;45.10;33.70;;;17.60;99.90;;;;;;5026423;28;20045;-45
2021/07/27 02:50:59;;;;;;;40.33;33.13;;;17.60;99.90;;;;;;5027297;28;20045;-47
2021/07/27 02:53:29;;;;;;;37.13;31.02;;;17.60;99.90;;;;;;5013105;28;20064;-46
2021/07/27 02:55:58;;;;;;;36.38;29.98;;;17.50;99.90;;;;;;5025551;28;20558;-45
2021/07/27 02:58:24;;;;;;;39.42;32.03;;;17.50;99.90;;;;;;5025508;28;20057;-45
2021/07/27 03:00:50;;;;;;;40.17;31.52;;;17.50;99.90;;;;;;5031567;28;20045;-48
2021/07/27 03:03:19;;;;;;;36.55;30.27;;;17.50;99.90;;;;;;5024669;28;20045;-44
2021/07/27 03:05:45;;;;;;;38.28;32.00;;;17.40;99.90;;;;;;5025861;28;20053;-44
2021/07/27 03:08:19;;;;;;;37.20;31.83;;;17.40;99.90;;;;;;5026656;28;20057;-45
2021/07/27 03:10:45;;;;;;;34.35;30.20;;;17.40;99.90;;;;;;5031824;28;20080;-44
2021/07/27 03:13:12;;;;;;;39.15;31.33;;;17.50;99.90;;;;;;5026361;28;20056;-44
2021/07/27 03:15:40;;;;;;;38.17;31.70;;;17.50;99.90;;;;;;5026678;28;20116;-44
2021/07/27 03:18:06;;;;;;;37.58;30.13;;;17.50;99.90;;;;;;5013564;28;20124;-46
2021/07/27 03:20:35;;;;;;;38.42;32.70;;;17.50;99.90;;;;;;5027236;28;20049;-45
2021/07/27 03:23:01;;;;;;;37.47;32.45;;;17.40;99.90;;;;;;5025547;28;20041;-45
2021/07/27 03:25:30;;;;;;;40.10;32.88;;;17.40;99.90;;;;;;5042202;28;20060;-45
2021/07/27 03:27:57;;;;;;;40.05;33.20;;;17.30;99.90;;;;;;5026634;28;20061;-47
2021/07/27 03:30:26;;;;;;;41.65;34.30;;;17.30;99.90;;;;;;5026821;28;20409;-44
2021/07/27 03:32:53;;;;;;;42.22;32.65;;;17.30;99.90;;;;;;5030209;28;20049;-45
2021/07/27 03:35:22;;;;;;;42.95;32.35;;;17.30;99.90;;;;;;5026509;28;20049;-46
2021/07/27 03:37:48;;;;;;;39.10;32.42;;;17.20;99.90;;;;;;5025287;28;20731;-44
2021/07/27 03:40:18;;;;;;;46.22;34.17;;;17.20;99.90;;;;;;5025869;28;20061;-43
2021/07/27 03:42:44;;;;;;;47.83;33.67;;;17.20;99.90;;;;;;5027178;28;20410;-45
2021/07/27 03:45:11;;;;;;;42.60;32.60;;;17.20;99.90;;;;;;5030152;28;20084;-47
2021/07/27 03:47:40;;;;;;;43.28;33.67;;;17.20;99.90;;;;;;5030015;28;20120;-44
2021/07/27 03:50:11;;;;;;;42.00;35.08;;;17.10;99.90;;;;;;5030759;28;20052;-44
2021/07/27 03:52:40;;;;;;;41.78;34.35;;;17.20;99.90;;;;;;5027548;28;20076;-43
2021/07/27 03:55:09;;;;;;;44.20;35.58;;;17.10;99.90;;;;;;5029950;28;20130;-46
2021/07/27 03:57:38;;;;;;;41.88;34.88;;;17.20;99.90;;;;;;5030840;28;20068;-45
2021/07/27 04:00:10;;;;;;;45.40;36.15;;;17.20;99.90;;;;;;5030120;28;20049;-45
2021/07/27 04:02:39;;;;;;;;;;;17.20;99.90;;;;;;5020169;28;20080;-47
2021/07/27 04:05:09;;;;;;;43.03;36.10;;;17.20;99.90;;;;;;5029220;28;19932;-43
2021/07/27 04:07:40;;;;;;;50.45;35.67;;;17.10;99.90;;;;;;5040340;28;20516;-44
2021/07/27 04:10:07;;;;;;;44.33;35.27;;;17.10;99.90;;;;;;5028639;28;20135;-44
2021/07/27 04:12:35;;;;;;;44.85;36.10;;;17.10;99.90;;;;;;5033466;28;20623;-46
2021/07/27 04:15:01;;;;;;;50.65;37.40;;;17.10;99.90;;;;;;5033666;28;20049;-46
2021/07/27 04:17:30;;;;;;;46.65;37.15;;;17.20;99.90;;;;;;5029197;28;20050;-44
2021/07/27 04:19:56;;;;;;;45.05;34.80;;;17.10;99.90;;;;;;5028794;28;20049;-43
2021/07/27 04:22:27;;;;;;;42.78;34.63;;;17.10;99.90;;;;;;5029614;28;20052;-44
2021/07/27 04:24:59;;;;;;;50.35;38.40;;;17.10;99.90;;;;;;5029015;28;20079;-45
2021/07/27 04:27:29;;;;;;;50.10;38.25;;;17.20;99.90;;;;;;5028668;28;20057;-46
2021/07/27 04:29:58;;;;;;;45.97;36.53;;;17.20;99.90;;;;;;5028878;28;20056;-43
2021/07/27 04:32:25;;;;;;;49.45;38.42;;;17.20;99.90;;;;;;5029000;28;20049;-44
2021/07/27 04:34:54;;;;;;;47.25;37.35;;;17.20;99.90;;;;;;5028826;28;20053;-46
2021/07/27 04:37:21;;;;;;;48.67;37.05;;;17.30;99.90;;;;;;5028152;28;20426;-47
2021/07/27 04:39:53;;;;;;;49.28;39.13;;;17.30;99.90;;;;;;5028274;28;20516;-44
2021/07/27 04:42:20;;;;;;;50.00;39.85;;;17.30;99.90;;;;;;5030136;28;20053;-44
2021/07/27 04:44:52;;;;;;;51.10;39.40;;;17.30;99.90;;;;;;5029477;28;20037;-47
2021/07/27 04:47:23;;;;;;;46.65;39.00;;;17.40;99.90;;;;;;5028389;28;20405;-43
2021/07/27 04:49:49;;;;;;;57.17;41.05;;;17.40;99.90;;;;;;5027329;28;20045;-44
2021/07/27 04:52:20;;;;;;;50.08;41.92;;;17.40;99.90;;;;;;5012929;28;20065;-46
2021/07/27 04:54:51;;;;;;;58.83;45.75;;;17.50;99.90;;;;;;5009728;28;20045;-47
2021/07/27 04:57:21;;;;;;;60.78;44.28;;;17.50;99.90;;;;;;5016537;28;20052;-46
2021/07/27 04:59:50;;;;;;;63.40;46.60;;;17.60;99.90;;;;;;5025947;28;20045;-44
2021/07/27 05:02:16;;;;;;;68.05;48.85;;;17.60;99.90;;;;;;5028890;28;20139;-47
2021/07/27 05:04:46;;;;;;;49.10;40.00;;;17.70;99.90;;;;;;5027309;28;20402;-47
2021/07/27 05:07:16;;;;;;;49.80;39.42;;;17.60;99.90;;;;;;5025535;28;20045;-45
2021/07/27 05:09:47;;;;;;;52.05;38.15;;;17.60;99.90;;;;;;5024534;28;20106;-45
2021/07/27 05:12:16;;;;;;;47.15;36.70;;;17.60;99.90;;;;;;5025301;28;20069;-46
2021/07/27 05:14:42;;;;;;;51.45;39.00;;;17.70;99.90;;;;;;5029970;28;20045;-46
2021/07/27 05:17:12;;;;;;;51.83;39.90;;;17.70;99.90;;;;;;5029833;28;20072;-49
2021/07/27 05:20:01;;;;;;;50.83;38.33;;;17.70;99.90;;;;;;5026247;28;20050;-46
2021/07/27 05:22:27;;;;;;;61.58;43.22;;;17.70;99.90;;;;;;5034616;28;20527;-48
2021/07/27 05:24:54;;;;;;;59.80;41.60;;;17.80;99.90;;;;;;5028028;28;20579;-48
2021/07/27 05:27:22;;;;;;;67.00;45.10;;;17.90;99.90;;;;;;5019051;28;20081;-47
2021/07/27 05:29:52;;;;;;;57.67;43.30;;;17.80;99.90;;;;;;5009237;28;20710;-46
2021/07/27 05:32:22;;;;;;;57.35;42.45;;;17.90;99.90;;;;;;5028988;28;20045;-48
2021/07/27 05:34:57;;;;;;;58.53;42.20;;;17.90;99.90;;;;;;5028514;28;20632;-49
2021/07/27 05:37:30;;;;;;;57.38;42.58;;;18.00;99.90;;;;;;5014279;28;20357;-49
2021/07/27 05:40:01;;;;;;;53.97;43.08;;;17.90;99.90;;;;;;5008752;28;20140;-49
2021/07/27 05:42:29;;;;;;;56.67;44.08;;;17.90;99.90;;;;;;5025741;28;20135;-47
2021/07/27 05:44:55;;;;;;;63.72;45.97;;;17.90;99.90;;;;;;5031409;28;20041;-47
2021/07/27 05:47:22;;;;;;;69.47;46.50;;;17.90;99.90;;;;;;5026253;28;20049;-49
2021/07/27 05:49:48;;;;;;;63.40;45.83;;;18.00;99.90;;;;;;5027400;28;20049;-46
2021/07/27 05:52:17;;;;;;;71.13;52.08;;;18.10;99.90;;;;;;5020976;28;20064;-46
2021/07/27 05:54:45;;;;;;;78.03;56.25;;;18.20;99.90;;;;;;5036628;28;20050;-47
2021/07/27 05:57:12;;;;;;;77.55;55.78;;;18.10;99.90;;;;;;5028210;28;20452;-46
2021/07/27 05:59:40;;;;;;;76.45;61.22;;;18.10;99.90;;;;;;5028266;28;20045;-46
2021/07/27 06:02:07;;;;;;;63.88;48.33;;;18.10;99.90;;;;;;5026633;28;20056;-43
2021/07/27 06:04:34;;;;;;;63.13;46.70;;;18.00;99.90;;;;;;5028391;28;20053;-47
2021/07/27 06:07:01;;;;;;;62.53;46.88;;;18.10;99.90;;;;;;5027043;28;20056;-44
2021/07/27 06:09:33;;;;;;;68.03;49.00;;;18.20;99.90;;;;;;5025769;28;20053;-44
2021/07/27 06:12:02;;;;;;;82.97;62.72;;;18.10;99.90;;;;;;5042343;28;20060;-45
2021/07/27 06:14:28;;;;;;;109.30;93.88;;;18.10;99.90;;;;;;5027709;28;20049;-47
2021/07/27 06:16:55;;;;;;;77.10;58.45;;;18.20;99.90;;;;;;5028120;28;20500;-46
2021/07/27 06:19:25;;;;;;;74.05;54.97;;;18.20;99.90;;;;;;5027025;28;20049;-45
2021/07/27 06:21:52;;;;;;;66.43;51.90;;;18.30;99.90;;;;;;5042921;28;20085;-46
2021/07/27 06:24:19;;;;;;;67.25;49.22;;;18.40;99.90;;;;;;5030401;28;20076;-46
2021/07/27 06:26:45;;;;;;;70.60;56.45;;;18.40;99.90;;;;;;5023374;28;20073;-47
2021/07/27 06:29:12;;;;;;;67.53;51.33;;;18.50;99.90;;;;;;5022849;28;20049;-46
2021/07/27 06:31:41;;;;;;;63.08;50.65;;;18.50;99.90;;;;;;5016887;28;20045;-48
2021/07/27 06:34:13;;;;;;;;;;;18.60;99.90;;;;;;5030828;28;20103;-47
2021/07/27 06:36:42;;;;;;;70.15;56.47;;;18.50;99.90;;;;;;5027276;28;20796;-43
2021/07/27 06:39:10;;;;;;;104.13;83.93;;;18.60;99.90;;;;;;5028607;28;20144;-47
2021/07/27 06:41:42;;;;;;;;;;;18.80;99.90;;;;;;5027628;28;20072;-44
2021/07/27 06:44:08;;;;;;;74.03;53.55;;;18.90;99.90;;;;;;5026129;28;19925;-46
2021/07/27 06:46:37;;;;;;;76.40;57.03;;;19.00;99.90;;;;;;5025739;28;20045;-48
2021/07/27 06:49:07;;;;;;;73.90;54.25;;;19.10;99.90;;;;;;5027615;28;20057;-49
2021/07/27 06:51:35;;;;;;;71.20;53.83;;;19.20;99.90;;;;;;5016731;28;20048;-45
2021/07/27 06:54:02;;;;;;;66.00;51.15;;;19.40;99.90;;;;;;5020091;28;20053;-47
2021/07/27 06:56:28;;;;;;;73.07;54.25;;;19.60;99.90;;;;;;5027006;28;20054;-48
2021/07/27 06:58:54;;;;;;;71.15;53.75;;;19.80;99.90;;;;;;5026623;28;20057;-45
2021/07/27 07:01:23;;;;;;;65.95;52.00;;;19.90;99.90;;;;;;5023909;28;20048;-45
2021/07/27 07:03:49;;;;;;;67.15;50.42;;;20.00;99.90;;;;;;5026442;28;20111;-43
2021/07/27 07:06:16;;;;;;;60.10;49.55;;;20.00;99.90;;;;;;5027932;28;20057;-46
2021/07/27 07:08:42;;;;;;;69.82;57.50;;;19.80;99.90;;;;;;5024296;28;20072;-45
2021/07/27 07:11:12;;;;;;;106.78;94.30;;;19.70;99.90;;;;;;5021240;28;20057;-46
2021/07/27 07:13:39;;;;;;;64.53;54.70;;;19.70;99.90;;;;;;5023952;28;20720;-43
2021/07/27 07:16:10;;;;;;;69.32;54.42;;;19.70;99.90;;;;;;5007627;28;20053;-43
2021/07/27 07:18:40;;;;;;;68.40;54.30;;;19.60;99.90;;;;;;5028681;28;20111;-44
2021/07/27 07:21:07;;;;;;;65.18;53.35;;;19.50;99.90;;;;;;5027412;28;20083;-45
2021/07/27 07:23:33;;;;;;;68.60;53.88;;;19.50;99.90;;;;;;5028949;28;20049;-46
2021/07/27 07:26:06;;;;;;;70.18;55.67;;;19.60;99.90;;;;;;5028115;28;20115;-42
2021/07/27 07:28:33;;;;;;;70.10;53.03;;;19.70;99.90;;;;;;5034377;28;20045;-44
2021/07/27 07:31:00;;;;;;;63.25;52.88;;;19.70;99.90;;;;;;5024639;28;20041;-43
2021/07/27 07:33:26;;;;;;;78.88;66.07;;;19.70;99.90;;;;;;5029661;28;20500;-43
2021/07/27 07:35:56;;;;;;;79.15;64.47;;;19.80;99.90;;;;;;5029809;28;20050;-44
2021/07/27 07:38:24;;;;;;;98.22;80.60;;;20.00;99.90;;;;;;5031282;28;20045;-43
2021/07/27 07:40:51;;;;;;;75.07;63.08;;;20.00;99.90;;;;;;5032011;28;20540;-43
2021/07/27 07:43:17;;;;;;;70.13;58.00;;;20.20;99.90;;;;;;5029356;28;20157;-44
2021/07/27 07:45:44;;;;;;;69.00;55.08;;;20.30;99.90;;;;;;5025716;28;20041;-43
2021/07/27 07:48:10;;;;;;;55.58;49.15;;;20.40;99.90;;;;;;5023684;28;20114;-44
2021/07/27 07:50:37;;;;;;;56.95;50.20;;;20.40;99.90;;;;;;5029328;28;20128;-45
2021/07/27 07:53:05;;;;;;;56.83;47.45;;;20.40;99.90;;;;;;5031445;28;20064;-46
2021/07/27 07:55:31;;;;;;;62.25;53.05;;;20.60;99.90;;;;;;5028684;28;20053;-45
2021/07/27 07:57:58;;;;;;;63.25;52.28;;;20.70;99.90;;;;;;5029541;28;20057;-43
2021/07/27 08:00:24;;;;;;;99.28;88.47;;;20.90;99.90;;;;;;5029766;28;20087;-45
2021/07/27 08:02:51;;;;;;;65.00;57.42;;;20.90;99.90;;;;;;5030044;28;20060;-42
2021/07/27 08:05:19;;;;;;;55.58;49.20;;;21.10;99.90;;;;;;5029165;28;20061;-45
2021/07/27 08:07:45;;;;;;;57.90;49.17;;;21.20;99.90;;;;;;5029917;28;20383;-43
2021/07/27 08:10:12;;;;;;;51.97;46.28;;;21.20;99.90;;;;;;5029589;28;20060;-44
2021/07/27 08:12:39;;;;;;;52.72;46.05;;;21.40;99.90;;;;;;5029678;28;20065;-47
2021/07/27 08:15:06;;;;;;;50.67;45.17;;;21.00;99.90;;;;;;5028285;28;20107;-47
2021/07/27 08:17:33;;;;;;;54.40;48.45;;;20.90;99.90;;;;;;5033922;28;20136;-44
2021/07/27 08:19:59;;;;;;;53.03;47.25;;;20.70;99.90;;;;;;5028527;28;20449;-48
2021/07/27 08:22:26;;;;;;;54.25;48.33;;;20.70;99.90;;;;;;5033036;28;20046;-46
2021/07/27 08:24:52;;;;;;;52.40;46.75;;;20.50;99.90;;;;;;5026603;28;20053;-47
2021/07/27 08:27:18;;;;;;;50.53;44.67;;;20.50;99.90;;;;;;5032931;28;20453;-48
2021/07/27 08:29:44;;;;;;;50.75;45.00;;;20.70;99.90;;;;;;5032415;28;20073;-46
2021/07/27 08:32:11;;;;;;;49.70;44.15;;;21.00;99.90;;;;;;5035741;28;20123;-45
2021/07/27 08:34:38;;;;;;;50.67;43.60;;;21.50;99.90;;;;;;5028580;28;20045;-47
2021/07/27 08:37:05;;;;;;;47.08;42.10;;;21.80;99.90;;;;;;5028958;28;20067;-48
2021/07/27 08:39:32;;;;;;;51.10;45.75;;;22.00;99.90;;;;;;5029183;28;20136;-45
2021/07/27 08:42:01;;;;;;;49.25;43.90;;;22.00;99.90;;;;;;5030570;28;20056;-47
2021/07/27 08:44:30;;;;;;;47.10;42.13;;;21.80;99.90;;;;;;5026775;28;20140;-48
2021/07/27 08:47:15;;;;;;;45.47;40.40;;;22.00;99.90;;;;;;5028342;28;20755;-46
2021/07/27 08:49:43;;;;;;;44.50;39.90;;;21.90;99.90;;;;;;5029078;28;20046;-46
2021/07/27 08:52:10;;;;;;;43.85;39.25;;;22.20;99.90;;;;;;5029947;28;20219;-47
2021/07/27 08:54:38;;;;;;;44.72;40.00;;;22.70;99.90;;;;;;5027266;28;20124;-47
2021/07/27 08:57:12;;;;;;;44.75;40.00;;;22.80;99.90;;;;;;5027364;28;20049;-49
2021/07/27 08:59:41;;;;;;;45.33;40.88;;;22.90;99.90;;;;;;5028004;28;20057;-46
2021/07/27 09:02:07;;;;;;;38.80;34.92;;;22.60;99.90;;;;;;5027110;28;20142;-49
2021/07/27 09:04:34;;;;;;;41.70;37.75;;;22.40;99.90;;;;;;5029023;28;20065;-47
2021/07/27 09:07:05;;;;;;;40.67;36.60;;;22.40;99.90;;;;;;5032118;28;20840;-48
2021/07/27 09:09:35;;;;;;;37.92;34.40;;;22.20;99.90;;;;;;5032187;28;20053;-46
2021/07/27 09:12:06;;;;;;;36.15;32.85;;;22.10;99.90;;;;;;5028057;28;20102;-47
2021/07/27 09:14:32;;;;;;;37.38;33.63;;;22.50;99.90;;;;;;5028651;28;20060;-48
2021/07/27 09:16:59;;;;;;;34.47;31.13;;;22.40;99.90;;;;;;5027419;28;20045;-48
2021/07/27 09:19:26;;;;;;;31.50;28.48;;;22.30;99.90;;;;;;5027991;28;20143;-49
2021/07/27 09:22:04;;;;;;;29.33;26.58;;;22.20;99.90;;;;;;5029357;28;20057;-52
2021/07/27 09:24:32;;;;;;;26.70;24.00;;;22.40;99.90;;;;;;5034355;28;20048;-49
2021/07/27 09:27:05;;;;;;;28.10;25.40;;;22.60;99.90;;;;;;5026813;28;20057;-47
2021/07/27 09:29:40;;;;;;;26.63;23.95;;;23.20;99.90;;;;;;5028291;28;20045;-47
2021/07/27 09:32:14;;;;;;;23.80;21.48;;;23.60;99.90;;;;;;5017251;28;20666;-46
2021/07/27 09:34:41;;;;;;;24.52;22.35;;;23.80;99.90;;;;;;5028065;28;20107;-50
2021/07/27 09:37:08;;;;;;;24.25;21.85;;;23.70;99.90;;;;;;5027376;28;20064;-49
2021/07/27 09:39:36;;;;;;;24.95;22.45;;;23.90;99.90;;;;;;5026910;28;20072;-46
2021/07/27 09:42:03;;;;;;;24.98;22.50;;;23.60;99.90;;;;;;5031421;28;20081;-47
2021/07/27 09:44:31;;;;;;;26.25;23.85;;;23.50;99.90;;;;;;5026954;28;20751;-47
2021/07/27 09:47:04;;;;;;;23.38;21.08;;;23.50;99.90;;;;;;5027085;28;20846;-47
2021/07/27 09:49:31;;;;;;;23.23;21.00;;;23.50;99.90;;;;;;5015873;28;20045;-44
2021/07/27 09:51:57;;;;;;;23.13;20.95;;;23.40;99.90;;;;;;5027191;28;20053;-45
2021/07/27 09:54:25;;;;;;;25.92;23.52;;;23.40;99.90;;;;;;5030167;28;20460;-47
2021/07/27 09:56:53;;;;;;;28.25;25.65;;;23.30;99.90;;;;;;5026152;28;20045;-47
2021/07/27 09:59:21;;;;;;;28.27;25.63;;;23.40;99.90;;;;;;5030029;28;20061;-48
2021/07/27 10:02:01;;;;;;;29.50;26.85;;;23.10;99.90;;;;;;5030741;28;20064;-48
2021/07/27 10:04:32;;;;;;;21.27;19.05;;;23.30;99.90;;;;;;5032011;28;20441;-49
2021/07/27 10:07:00;;;;;;;23.48;21.05;;;23.40;99.90;;;;;;5034295;28;20033;-48
2021/07/27 10:09:34;;;;;;;23.35;21.13;;;23.20;99.90;;;;;;5028315;28;20042;-49
2021/07/27 10:12:07;;;;;;;20.77;18.60;;;23.50;99.90;;;;;;5028447;28;20128;-48
2021/07/27 10:14:42;;;;;;;22.33;20.33;;;23.50;99.90;;;;;;5026475;28;20410;-49
2021/07/27 10:17:09;;;;;;;22.55;20.40;;;23.90;99.90;;;;;;5031796;28;20115;-53
2021/07/27 10:19:40;;;;;;;21.35;19.20;;;24.10;96.80;;;;;;5026469;28;20091;-49
2021/07/27 10:22:11;;;;;;;20.65;18.65;;;24.80;96.50;;;;;;5027070;28;20080;-49
2021/07/27 10:24:45;;;;;;;20.20;18.30;;;25.20;94.60;;;;;;5028365;28;20045;-50
2021/07/27 10:27:18;;;;;;;25.52;23.08;;;25.30;93.80;;;;;;5027838;28;20060;-51
2021/07/27 10:29:44;;;;;;;30.42;27.38;;;24.80;94.30;;;;;;5026634;28;20072;-52
2021/07/27 10:32:24;;;;;;;22.70;20.58;;;24.60;95.80;;;;;;5025812;28;20049;-48
2021/07/27 10:34:53;;;;;;;21.20;19.10;;;24.50;95.70;;;;;;5028239;28;20390;-46
2021/07/27 10:37:20;;;;;;;22.08;19.88;;;24.10;96.80;;;;;;5027639;28;20152;-49
2021/07/27 10:39:59;;;;;;;22.40;20.35;;;24.10;96.30;;;;;;5026721;28;20061;-45
2021/07/27 10:42:38;;;;;;;22.40;20.38;;;23.70;97.00;;;;;;5027925;28;20045;-45
2021/07/27 10:45:20;;;;;;;21.13;19.10;;;23.80;99.00;;;;;;5022065;28;20060;-46
2021/07/27 10:47:51;;;;;;;22.33;20.27;;;24.00;98.60;;;;;;5025409;28;20103;-46
2021/07/27 10:50:21;;;;;;;23.27;20.98;;;23.90;99.60;;;;;;5025774;28;20405;-46
2021/07/27 10:52:49;;;;;;;23.13;21.02;;;24.20;98.70;;;;;;5025660;28;20140;-45
2021/07/27 10:55:17;;;;;;;23.80;21.70;;;25.00;97.70;;;;;;5025282;28;20386;-49
2021/07/27 10:57:52;;;;;;;25.92;23.55;;;25.10;91.30;;;;;;5027222;28;20060;-47
2021/07/27 11:00:29;;;;;;;24.45;20.98;;;25.20;91.80;;;;;;5020014;28;20049;-45
2021/07/27 11:02:56;;;;;;;25.85;23.48;;;24.80;92.70;;;;;;5025352;28;20045;-44
2021/07/27 11:05:26;;;;;;;26.55;24.02;;;25.10;92.60;;;;;;5025451;28;20050;-46
2021/07/27 11:07:53;;;;;;;21.93;19.83;;;25.10;91.80;;;;;;5022205;28;20050;-47
2021/07/27 11:10:26;;;;;;;22.52;20.17;;;25.50;92.20;;;;;;5026124;28;20311;-50
2021/07/27 11:12:56;;;;;;;22.25;20.17;;;25.40;94.60;;;;;;5025158;28;20063;-57
2021/07/27 11:15:27;;;;;;;23.85;21.55;;;25.40;92.10;;;;;;5025071;28;20632;-57
2021/07/27 11:17:53;;;;;;;25.20;22.75;;;26.10;91.00;;;;;;5024696;28;20450;-56
2021/07/27 11:20:23;;;;;;;23.05;20.85;;;26.80;90.40;;;;;;5025212;28;20551;-48
2021/07/27 11:22:55;;;;;;;22.67;20.67;;;26.80;85.40;;;;;;5025008;28;20081;-49
2021/07/27 11:25:27;;;;;;;20.73;18.92;;;26.20;84.60;;;;;;5026202;28;20050;-49
2021/07/27 11:27:55;;;;;;;22.08;20.08;;;26.90;90.00;;;;;;5025509;28;20050;-48
2021/07/27 11:30:33;;;;;;;21.13;19.13;;;27.30;80.60;;;;;;5026200;28;20509;-49
2021/07/27 11:33:11;;;;;;;19.95;18.05;;;27.10;74.30;;;;;;5025845;28;21324;-50
2021/07/27 11:35:47;;;;;;;21.25;19.17;;;27.60;75.80;;;;;;5025952;28;20057;-51
2021/07/27 11:38:22;;;;;;;21.38;19.25;;;26.90;73.00;;;;;;5033087;28;20056;-53
2021/07/27 11:41:03;;;;;;;20.25;18.55;;;26.60;76.30;;;;;;5026618;28;20128;-53
2021/07/27 11:43:35;;;;;;;21.17;19.38;;;26.80;75.70;;;;;;5026413;28;20607;-48
2021/07/27 11:46:12;;;;;;;26.23;23.80;;;26.30;78.40;;;;;;5026137;28;20057;-51
2021/07/27 11:48:43;;;;;;;28.27;25.73;;;25.80;76.80;;;;;;5024265;28;20054;-51
2021/07/27 11:51:13;;;;;;;28.95;26.52;;;25.60;79.80;;;;;;5033220;28;20045;-53
2021/07/27 11:53:40;;;;;;;21.88;19.88;;;25.70;81.00;;;;;;5026467;28;20054;-52
2021/07/27 11:56:14;;;;;;;32.85;29.80;;;25.50;81.90;;;;;;5025757;28;20050;-52
2021/07/27 11:58:48;;;;;;;19.67;17.88;;;25.40;83.90;;;;;;5027050;28;20046;-53
2021/07/27 12:01:17;;;;;;;24.50;22.08;;;25.50;83.30;;;;;;5026385;28;20080;-52
2021/07/27 12:03:43;;;;;;;21.15;19.15;;;25.60;85.60;;;;;;5026277;28;20057;-54
2021/07/27 12:06:14;;;;;;;22.52;20.27;;;25.70;84.70;;;;;;5033135;28;20045;-51
2021/07/27 12:08:41;;;;;;;22.80;20.83;;;25.60;83.60;;;;;;5027997;28;20049;-51
2021/07/27 12:11:08;;;;;;;22.88;20.77;;;26.20;83.50;;;;;;5029651;28;20061;-51
2021/07/27 12:13:34;;;;;;;20.35;18.55;;;25.90;80.60;;;;;;5028955;28;20049;-52
2021/07/27 12:16:03;;;;;;;20.52;18.48;;;25.80;81.70;;;;;;5025651;28;20054;-49
2021/07/27 12:18:32;;;;;;;19.75;17.95;;;26.30;83.70;;;;;;5030077;28;20092;-51
2021/07/27 12:20:59;;;;;;;19.98;18.02;;;27.10;82.60;;;;;;5029792;28;20477;-51
2021/07/27 12:23:25;;;;;;;21.75;19.67;;;27.20;81.50;;;;;;5029657;28;20045;-54
2021/07/27 12:25:51;;;;;;;19.80;17.95;;;26.80;79.80;;;;;;5029956;28;20060;-51
2021/07/27 12:28:18;;;;;;;17.52;15.82;;;26.60;77.40;;;;;;5034896;28;20099;-55
2021/07/27 12:30:45;;;;;;;26.48;23.85;;;26.50;75.70;;;;;;5035746;28;20049;-51
2021/07/27 12:33:11;;;;;;;18.05;16.15;;;26.00;76.00;;;;;;5027229;28;20049;-52
2021/07/27 12:35:38;;;;;;;21.38;19.17;;;25.90;79.00;;;;;;5028715;28;20060;-53
2021/07/27 12:38:07;;;;;;;22.05;19.92;;;25.40;78.20;;;;;;5029824;28;20073;-51
2021/07/27 12:40:34;;;;;;;22.45;20.30;;;25.50;82.60;;;;;;5028088;28;20049;-55
2021/07/27 12:43:00;;;;;;;22.33;20.25;;;25.10;82.50;;;;;;5036362;28;20042;-52
2021/07/27 12:45:26;;;;;;;19.98;18.08;;;25.10;83.70;;;;;;5026894;28;20057;-49
2021/07/27 12:47:53;;;;;;;23.85;21.60;;;25.00;85.10;;;;;;5029013;28;20168;-53
2021/07/27 12:50:19;;;;;;;47.65;43.05;;;24.90;85.50;;;;;;5029237;28;20051;-53
2021/07/27 12:52:48;;;;;;;31.60;28.48;;;24.70;84.90;;;;;;5029351;28;20053;-52
2021/07/27 12:55:16;;;;;;;27.90;25.35;;;24.50;87.10;;;;;;5021563;28;20533;-54
2021/07/27 12:57:42;;;;;;;28.40;25.85;;;24.50;88.50;;;;;;5009645;28;20072;-49
2021/07/27 13:00:12;;;;;;;19.83;18.02;;;24.30;88.00;;;;;;5012017;28;20038;-54
2021/07/27 13:02:38;;;;;;;19.90;17.92;;;24.30;90.60;;;;;;5030741;28;20552;-54